• Join FlightAware (Why Join?)
  • Login
  • US Flag 
04:04AM EDT


 

Airport Tracker/Info


-or-


 

Live Flight TrackerFlight Track Log ✈ N121JM ✈ 13-Apr-2014 ✈ KBCT - KPHL

Flight Track Log - Related Links

Times and Time Zones

All times are in EDT time to prevent confusion due to time zone crossing. See the N121JM flight status page for this flight to view local times or setup timezone preferences in your user account.

Time Position Orientation Groundspeed Altitude Reporting Facility
EDT Latitude Longitude Course Direction KTS MPH feet Rate Location/Type
04:57PM 26.5856 -79.9953 North 281 323 9,100  Level Miami Center
04:58PM 26.6934 -79.9619 16° North 311 358 11,800 1,200 Climbing FlightAware ADS-B (RJTF)
05:00PM 26.8093 -79.9145 39° Northeast 376 433 12,500 1,200 Climbing FlightAware ADS-B (RJTF)
05:02PM 27.0105 -79.5621 51° Northeast  Level FlightAware Approximate
05:03PM 26.4917 -80.0917 17° North  Level FlightAware Approximate
05:04PM 26.6001 -80.0833 North  Level FlightAware Approximate
05:05PM 27.1367 -79.3797 54° Northeast 426 490 19,600  Level FlightAware ADS-B (KMCO)
05:05PM 27.1913 -79.2956 54° Northeast 425 489 21,300 1,740 Climbing FlightAware ADS-B (KMCO)
05:08PM 27.3680 -79.0198 54° Northeast 444 511 25,500 1,680 Climbing FlightAware ADS-B (KMCO)
05:09PM 27.4060 -78.9602 55° Northeast 451 519 26,600 1,500 Climbing FlightAware ADS-B (KMCO)
05:09PM 27.4638 -78.8736 52° Northeast 456 525 27,500 1,500 Climbing FlightAware ADS-B (KMCO)
05:14PM 28.0355 -78.7045 North 441 507 35,000 1,500 Climbing FlightAware ADS-B (KMCO)
05:15PM 28.1156 -78.6975 North 446 513 36,100 1,680 Climbing Miami Center
05:16PM 28.2328 -78.6758 North 440 506 37,900 1,560 Climbing Miami Center
05:17PM 28.3519 -78.6542 North 430 495 39,300 1,260 Climbing Miami Center
05:18PM 28.4650 -78.6347 North 418 481 40,500 840 Climbing Miami Center
05:19PM 28.5842 -78.6128 North 418 481 41,000 240 Climbing Miami Center
05:20PM 28.7014 -78.5933 North 418 481 41,000  Level Miami Center
05:21PM 28.8142 -78.5717 10° North 425 489 41,000  Level Miami Center
05:22PM 28.9314 -78.5519 North 420 483 41,000  Level Miami Center
05:23PM 29.0486 -78.5278 10° North 420 483 41,000  Level Miami Center
05:24PM 29.1633 -78.5103 North 420 483 41,000  Level Miami Center
05:25PM 29.2764 -78.4883 10° North 415 478 41,000  Level Miami Center
05:29PM 29.7156 -78.3997 10° North 408 470 41,000  Level Jacksonville Center
05:30PM 29.8339 -78.3822 North 418 481 41,000  Level Jacksonville Center
05:31PM 29.9436 -78.3578 11° North 413 475 41,000  Level Jacksonville Center
05:32PM 30.0578 -78.3381 North 407 468 41,000  Level Jacksonville Center
05:33PM 30.1736 -78.3039 14° North 412 474 41,000  Level Jacksonville Center
05:34PM 30.2914 -78.2717 13° North 417 480 41,000  Level Jacksonville Center
05:35PM 30.4067 -78.2325 16° North 417 480 41,000  Level Jacksonville Center
05:37PM 30.6336 -78.1586 17° North 422 486 41,000  Level Jacksonville Center
05:38PM 30.7469 -78.1214 16° North 422 486 41,000 -60 Level Jacksonville Center
06:10PM 34.4492 -76.8328 16° North 439 505 39,300 -120 Descending Washington Center
06:11PM 34.2603 -76.8838 17° North  Level FlightAware Approximate
06:12PM 34.3683 -76.8439 17° North  Level FlightAware Approximate
06:12PM 34.6722 -76.7519 17° North 418 481 38,000  Level Washington Center
06:13PM 34.4762 -76.8040 17° North  Level FlightAware Approximate
06:13PM 34.7839 -76.7103 17° North 418 481 37,400  Level Washington Center
06:14PM 34.5842 -76.7640 17° North  Level FlightAware Approximate
06:14PM 34.8969 -76.6697 16° North 420 483 36,800  Level Washington Center
06:15PM 34.6922 -76.7243 16° North  Level FlightAware Approximate
06:15PM 35.0344 -76.6203 16° North 427 491 36,100  Level Washington Center
06:16PM 34.8005 -76.6857 16° North  Level FlightAware Approximate
06:16PM 35.1403 -76.5808 17° North 431 496 35,500  Level Washington Center
06:17PM 34.9088 -76.6470 16° North  Level FlightAware Approximate
06:17PM 35.2803 -76.5292 17° North 434 499 34,800  Level Washington Center
06:18PM 35.0165 -76.6084 16° North  Level FlightAware Approximate
06:18PM 35.3792 -76.4928 17° North 442 509 34,200  Level Washington Center
06:19PM 35.1242 -76.5697 16° North  Level FlightAware Approximate
06:19PM 35.5219 -76.4394 17° North 447 514 33,500  Level Washington Center
06:20PM 35.2318 -76.5309 16° North  Level FlightAware Approximate
06:21PM 35.6439 -76.3936 17° North 456 525 33,000  Level Washington Center
06:22PM 35.7672 -76.3497 16° North 461 531 33,000  Level Washington Center
06:23PM 35.8906 -76.3033 17° North 461 531 33,000  Level Washington Center
06:24PM 36.0114 -76.2569 17° North 461 531 33,000  Level Washington Center
06:25PM 36.1556 -76.2014 17° North 455 524 33,000 -420 Level Washington Center
06:26PM 36.2783 -76.1553 17° North 457 526 32,200 -780 Descending Washington Center
06:27PM 36.4022 -76.1078 17° North 464 534 31,400 -780 Descending Washington Center
06:28PM 36.5281 -76.0597 17° North 470 541 30,600 -780 Descending Washington Center
06:29PM 36.6547 -76.0119 17° North 471 542 29,800 -720 Descending Washington Center
06:30PM 36.8019 -75.9539 18° North 479 551 29,100 -420 Descending Washington Center
06:31PM 36.9325 -75.9047 17° North 490 564 29,000 -60 Descending Washington Center
06:32PM 37.0567 -75.8567 17° North 482 555 29,000  Level Washington Center
06:33PM 37.1842 -75.8061 18° North 482 555 29,000  Level Washington Center
06:34PM 37.3372 -75.7469 17° North 482 555 29,000  Level Washington Center
06:35PM 37.4658 -75.6969 17° North 482 555 29,000  Level Washington Center
06:36PM 37.5942 -75.6464 17° North 482 555 29,000 -300 Level Washington Center
06:37PM 37.7228 -75.5961 17° North 483 556 28,500 -1,140 Descending Washington Center
06:38PM 37.8522 -75.5431 18° North 485 558 26,700 -2,100 Descending Washington Center
06:39PM 37.9747 -75.4947 17° North 464 534 24,200 -1,320 Descending Washington Center
06:47PM 38.8342 -74.9691 27° Northeast 379 436 14,800 -1,200 Descending FlightAware ADS-B (KWWD)
06:48PM 38.8814 -74.9390 27° Northeast 382 440 14,400 -1,140 Descending FlightAware ADS-B (KWWD)
06:48PM 38.9299 -74.9074 27° Northeast 379 436 13,700 -1,320 Descending FlightAware ADS-B (KWWD)
06:49PM 38.9777 -74.8765 27° Northeast 378 435 13,100 -1,200 Descending FlightAware ADS-B (KWWD)
06:49PM 39.0394 -74.8365 28° Northeast 365 420 12,300 -1,200 Descending FlightAware ADS-B (KWWD)
06:50PM 39.0860 -74.8106 12° North 365 420 11,700 -1,200 Descending FlightAware ADS-B (KWWD)
06:50PM 39.1189 -74.8099 352° North 355 409 11,300 -1,320 Descending FlightAware ADS-B (KWWD)
06:51PM 39.1795 -74.8315 344° North 316 364 10,400 -1,320 Descending FlightAware ADS-B (KWWD)
06:51PM 39.2152 -74.8451 343° North 306 352 9,900 -1,140 Descending FlightAware ADS-B (KWWD)
06:52PM 39.2465 -74.8571 343° North 285 328 9,500 -1,020 Descending FlightAware ADS-B (KWWD)
06:52PM 39.2708 -74.8660 344° North 285 328 9,200 -900 Descending FlightAware ADS-B (KWWD)
06:52PM 39.2965 -74.8759 343° North 273 314 8,900 -480 Descending FlightAware ADS-B (KWWD)
06:53PM 39.3212 -74.8851 343° North 273 314 8,900  Level FlightAware ADS-B (KWWD)
06:53PM 39.3454 -74.8945 343° North 274 315 8,900  Level FlightAware ADS-B (KWWD)
06:53PM 39.3737 -74.9051 344° North 283 326 8,900  Level FlightAware ADS-B (KWWD)
06:54PM 39.3991 -74.9148 344° North 285 328 8,900  Level FlightAware ADS-B (KWWD)
06:54PM 39.4256 -74.9247 344° North 287 330 8,900  Level FlightAware ADS-B (KWWD)
06:55PM 39.2779 -74.8687 344° North 290 334 8,900 -240 Level FlightAware ADS-B (KPHL)
06:57PM 39.5296 -74.9643 327° Northwest 231 266 8,300 -480 Descending FlightAware ADS-B (KPHL)
06:58PM 39.6145 -75.0318 327° Northwest 222 255 7,700 -960 Descending FlightAware ADS-B (KPHL)
06:58PM 39.6613 -75.0695 341° North 216 249 7,300 -900 Descending FlightAware ADS-B (KPHL)
06:59PM 39.7076 -75.0736 357° North 210 242 6,900 -540 Descending FlightAware ADS-B (KWWD)
06:59PM 39.7126 -75.0740 356° North 218 251 6,900 -180 Level FlightAware ADS-B (KPHL)
06:59PM 39.7140 -75.0742 347° North 218 251 6,800 -1,080 Descending FlightAware ADS-B (KPHL)
07:00PM 39.7675 -75.0878 353° North 222 255 5,900 -720 Descending FlightAware ADS-B (KPHL)
07:01PM 39.7675 -75.0878 48° Northeast 230 265 5,600 -480 Descending FlightAware ADS-B (KPHL)
07:02PM 39.8309 -74.9838 71° East 219 252 5,100 -420 Descending FlightAware ADS-B (KPHL)
07:03PM 39.8505 -74.9088 70° East 215 247 4,900 -240 Descending FlightAware ADS-B (KPHL)
07:07PM 39.8505 -74.9088 78° East 209 241 3,900 -240 Descending FlightAware ADS-B (KPHL)
07:08PM 39.9167 -74.9833 78° East 163 188 3,800 -600 Descending Philadelphia TRACON
07:09PM 39.9167 -75.0500 270° West 169 194 2,900 -900 Descending Philadelphia TRACON
07:10PM 39.9000 -75.1000 247° West 162 186 2,000 -900 Descending Philadelphia TRACON
07:11PM 39.8833 -75.1667 252° West 153 176 1,200 -840 Descending Philadelphia TRACON
07:12PM 39.8833 -75.2000 270° West 122 140 400 -840 Descending Philadelphia TRACON
07:15PM 39.8667 -75.2333 278° West  Level FlightAware Approximate
07:22PM 39.8722 -75.2409 278° West  Level Estimated
07:23PM 39.8722 -75.2409 95° East  Level Estimated
07:24PM 39.8722 -75.2409 95° East  Level Estimated